sensor_id;sensor_type;location;lat;lon;timestamp;temperature;humidity
42615;DHT22;28754;47.700;7.924;2022-11-15T00:00:40;9.30;99.90
42615;DHT22;28754;47.700;7.924;2022-11-15T00:03:45;9.40;99.90
42615;DHT22;28754;47.700;7.924;2022-11-15T00:06:51;9.20;99.90
42615;DHT22;28754;47.700;7.924;2022-11-15T00:09:56;9.20;99.90
42615;DHT22;28754;47.700;7.924;2022-11-15T00:13:10;9.20;99.90
42615;DHT22;28754;47.700;7.924;2022-11-15T00:16:17;9.20;99.90
42615;DHT22;28754;47.700;7.924;2022-11-15T00:19:22;9.30;99.90
42615;DHT22;28754;47.700;7.924;2022-11-15T00:22:34;9.30;99.90
42615;DHT22;28754;47.700;7.924;2022-11-15T00:25:39;9.20;99.90
42615;DHT22;28754;47.700;7.924;2022-11-15T00:28:44;9.20;99.90
42615;DHT22;28754;47.700;7.924;2022-11-15T00:31:50;9.30;99.90
42615;DHT22;28754;47.700;7.924;2022-11-15T00:34:55;9.30;99.90
42615;DHT22;28754;47.700;7.924;2022-11-15T00:38:01;9.40;99.90
42615;DHT22;28754;47.700;7.924;2022-11-15T00:41:07;9.40;99.90
42615;DHT22;28754;47.700;7.924;2022-11-15T00:44:12;9.40;99.90
42615;DHT22;28754;47.700;7.924;2022-11-15T00:47:18;9.40;99.90
42615;DHT22;28754;47.700;7.924;2022-11-15T00:50:23;9.40;99.90
42615;DHT22;28754;47.700;7.924;2022-11-15T00:53:29;9.40;99.90
42615;DHT22;28754;47.700;7.924;2022-11-15T00:56:34;9.50;99.90
42615;DHT22;28754;47.700;7.924;2022-11-15T00:59:40;9.40;99.90
42615;DHT22;28754;47.700;7.924;2022-11-15T01:02:45;9.50;99.90
42615;DHT22;28754;47.700;7.924;2022-11-15T01:05:50;9.40;99.90
42615;DHT22;28754;47.700;7.924;2022-11-15T01:08:55;9.40;99.90
42615;DHT22;28754;47.700;7.924;2022-11-15T01:12:01;9.40;99.90
42615;DHT22;28754;47.700;7.924;2022-11-15T01:15:07;9.40;99.90
42615;DHT22;28754;47.700;7.924;2022-11-15T01:18:12;9.30;99.90
42615;DHT22;28754;47.700;7.924;2022-11-15T01:21:19;9.20;99.90
42615;DHT22;28754;47.700;7.924;2022-11-15T01:24:24;9.20;99.90
42615;DHT22;28754;47.700;7.924;2022-11-15T01:27:30;9.30;99.90
42615;DHT22;28754;47.700;7.924;2022-11-15T01:30:36;9.20;99.90
42615;DHT22;28754;47.700;7.924;2022-11-15T01:33:42;9.20;99.90
42615;DHT22;28754;47.700;7.924;2022-11-15T01:36:47;9.10;99.90
42615;DHT22;28754;47.700;7.924;2022-11-15T01:39:52;9.20;99.90
42615;DHT22;28754;47.700;7.924;2022-11-15T01:42:58;9.20;99.90
42615;DHT22;28754;47.700;7.924;2022-11-15T01:49:31;9.20;99.90
42615;DHT22;28754;47.700;7.924;2022-11-15T01:52:40;9.30;99.90
42615;DHT22;28754;47.700;7.924;2022-11-15T01:55:46;9.30;99.90
42615;DHT22;28754;47.700;7.924;2022-11-15T01:58:53;9.30;99.90
42615;DHT22;28754;47.700;7.924;2022-11-15T02:02:01;9.40;99.90
42615;DHT22;28754;47.700;7.924;2022-11-15T02:05:06;9.30;99.90
42615;DHT22;28754;47.700;7.924;2022-11-15T02:08:12;9.30;99.90
42615;DHT22;28754;47.700;7.924;2022-11-15T02:11:24;9.30;99.90
42615;DHT22;28754;47.700;7.924;2022-11-15T02:14:30;9.30;99.90
42615;DHT22;28754;47.700;7.924;2022-11-15T02:28:44;9.30;99.90
42615;DHT22;28754;47.700;7.924;2022-11-15T02:32:18;9.40;99.90
42615;DHT22;28754;47.700;7.924;2022-11-15T02:39:09;9.50;99.90
42615;DHT22;28754;47.700;7.924;2022-11-15T02:42:26;9.50;99.90
42615;DHT22;28754;47.700;7.924;2022-11-15T02:46:00;9.30;99.90
42615;DHT22;28754;47.700;7.924;2022-11-15T02:49:13;9.20;99.90
42615;DHT22;28754;47.700;7.924;2022-11-15T02:52:22;9.10;99.90
42615;DHT22;28754;47.700;7.924;2022-11-15T02:55:38;9.20;99.90
42615;DHT22;28754;47.700;7.924;2022-11-15T02:59:00;9.10;99.90
42615;DHT22;28754;47.700;7.924;2022-11-15T03:02:48;9.00;99.90
42615;DHT22;28754;47.700;7.924;2022-11-15T03:09:38;9.00;99.90
42615;DHT22;28754;47.700;7.924;2022-11-15T03:19:48;9.20;99.90
42615;DHT22;28754;47.700;7.924;2022-11-15T03:23:06;9.20;99.90
42615;DHT22;28754;47.700;7.924;2022-11-15T03:26:14;9.20;99.90
42615;DHT22;28754;47.700;7.924;2022-11-15T03:29:28;9.30;99.90
42615;DHT22;28754;47.700;7.924;2022-11-15T03:32:51;9.30;99.90
42615;DHT22;28754;47.700;7.924;2022-11-15T03:36:00;9.40;99.90
42615;DHT22;28754;47.700;7.924;2022-11-15T03:39:07;9.40;99.90
42615;DHT22;28754;47.700;7.924;2022-11-15T03:42:36;9.40;99.90
42615;DHT22;28754;47.700;7.924;2022-11-15T03:45:54;9.40;99.90
42615;DHT22;28754;47.700;7.924;2022-11-15T03:49:11;9.40;99.90
42615;DHT22;28754;47.700;7.924;2022-11-15T03:52:21;9.40;99.90
42615;DHT22;28754;47.700;7.924;2022-11-15T03:55:27;9.30;99.90
42615;DHT22;28754;47.700;7.924;2022-11-15T03:58:32;9.40;99.90
42615;DHT22;28754;47.700;7.924;2022-11-15T04:01:38;9.40;99.90
42615;DHT22;28754;47.700;7.924;2022-11-15T04:04:43;9.30;99.90
42615;DHT22;28754;47.700;7.924;2022-11-15T04:07:48;9.30;99.90
42615;DHT22;28754;47.700;7.924;2022-11-15T04:10:54;9.40;99.90
42615;DHT22;28754;47.700;7.924;2022-11-15T04:13:59;9.40;99.90
42615;DHT22;28754;47.700;7.924;2022-11-15T04:17:05;9.40;99.90
42615;DHT22;28754;47.700;7.924;2022-11-15T04:20:19;9.40;99.90
42615;DHT22;28754;47.700;7.924;2022-11-15T04:23:44;9.30;99.90
42615;DHT22;28754;47.700;7.924;2022-11-15T04:26:58;9.20;99.90
42615;DHT22;28754;47.700;7.924;2022-11-15T04:30:04;9.20;99.90
42615;DHT22;28754;47.700;7.924;2022-11-15T04:33:10;9.30;99.90
42615;DHT22;28754;47.700;7.924;2022-11-15T04:36:15;9.30;99.90
42615;DHT22;28754;47.700;7.924;2022-11-15T04:39:40;9.40;99.90
42615;DHT22;28754;47.700;7.924;2022-11-15T04:42:46;9.40;99.90
42615;DHT22;28754;47.700;7.924;2022-11-15T04:45:51;9.40;99.90
42615;DHT22;28754;47.700;7.924;2022-11-15T04:48:56;9.40;99.90
42615;DHT22;28754;47.700;7.924;2022-11-15T04:52:02;9.50;99.90
42615;DHT22;28754;47.700;7.924;2022-11-15T04:55:09;9.50;99.90
42615;DHT22;28754;47.700;7.924;2022-11-15T04:58:15;9.50;99.90
42615;DHT22;28754;47.700;7.924;2022-11-15T05:01:35;9.50;99.90
42615;DHT22;28754;47.700;7.924;2022-11-15T05:04:50;9.40;99.90
42615;DHT22;28754;47.700;7.924;2022-11-15T05:07:56;9.40;99.90
42615;DHT22;28754;47.700;7.924;2022-11-15T05:11:01;9.50;99.90
42615;DHT22;28754;47.700;7.924;2022-11-15T05:14:07;9.40;99.90
42615;DHT22;28754;47.700;7.924;2022-11-15T05:17:12;9.40;99.90
42615;DHT22;28754;47.700;7.924;2022-11-15T05:20:17;9.40;99.90
42615;DHT22;28754;47.700;7.924;2022-11-15T05:23:23;9.40;99.90
42615;DHT22;28754;47.700;7.924;2022-11-15T05:26:28;9.40;99.90
42615;DHT22;28754;47.700;7.924;2022-11-15T05:29:33;9.40;99.90
42615;DHT22;28754;47.700;7.924;2022-11-15T05:32:38;9.40;99.90
42615;DHT22;28754;47.700;7.924;2022-11-15T05:35:48;9.40;99.90
42615;DHT22;28754;47.700;7.924;2022-11-15T05:38:59;9.40;99.90
42615;DHT22;28754;47.700;7.924;2022-11-15T05:42:09;9.40;99.90
42615;DHT22;28754;47.700;7.924;2022-11-15T05:45:16;9.50;99.90
42615;DHT22;28754;47.700;7.924;2022-11-15T05:48:21;9.50;99.90
42615;DHT22;28754;47.700;7.924;2022-11-15T05:51:29;9.40;99.90
42615;DHT22;28754;47.700;7.924;2022-11-15T05:54:35;9.50;99.90
42615;DHT22;28754;47.700;7.924;2022-11-15T05:57:42;9.50;99.90
42615;DHT22;28754;47.700;7.924;2022-11-15T06:00:48;9.50;99.90
42615;DHT22;28754;47.700;7.924;2022-11-15T06:03:53;9.50;99.90
42615;DHT22;28754;47.700;7.924;2022-11-15T06:06:59;9.60;99.90
42615;DHT22;28754;47.700;7.924;2022-11-15T06:10:04;9.60;99.90
42615;DHT22;28754;47.700;7.924;2022-11-15T06:13:10;9.60;99.90
42615;DHT22;28754;47.700;7.924;2022-11-15T06:16:15;9.60;99.90
42615;DHT22;28754;47.700;7.924;2022-11-15T06:19:20;9.40;99.90
42615;DHT22;28754;47.700;7.924;2022-11-15T06:22:26;9.50;99.90
42615;DHT22;28754;47.700;7.924;2022-11-15T06:25:31;9.40;99.90
42615;DHT22;28754;47.700;7.924;2022-11-15T06:28:37;9.40;99.90
42615;DHT22;28754;47.700;7.924;2022-11-15T06:31:42;9.40;99.90
42615;DHT22;28754;47.700;7.924;2022-11-15T06:34:47;9.40;99.90
42615;DHT22;28754;47.700;7.924;2022-11-15T06:37:53;9.50;99.90
42615;DHT22;28754;47.700;7.924;2022-11-15T06:41:06;9.60;99.90
42615;DHT22;28754;47.700;7.924;2022-11-15T06:44:13;9.80;99.90
42615;DHT22;28754;47.700;7.924;2022-11-15T06:47:18;9.90;99.90
42615;DHT22;28754;47.700;7.924;2022-11-15T06:50:24;10.20;99.90
42615;DHT22;28754;47.700;7.924;2022-11-15T06:53:30;10.30;99.90
42615;DHT22;28754;47.700;7.924;2022-11-15T06:56:37;10.20;99.90
42615;DHT22;28754;47.700;7.924;2022-11-15T06:59:42;10.10;99.90
42615;DHT22;28754;47.700;7.924;2022-11-15T07:02:48;10.00;99.90
42615;DHT22;28754;47.700;7.924;2022-11-15T07:05:55;9.90;99.90
42615;DHT22;28754;47.700;7.924;2022-11-15T07:09:02;9.90;99.90
42615;DHT22;28754;47.700;7.924;2022-11-15T07:12:08;9.80;99.90
42615;DHT22;28754;47.700;7.924;2022-11-15T07:15:14;9.80;99.90
42615;DHT22;28754;47.700;7.924;2022-11-15T07:18:20;9.80;99.90
42615;DHT22;28754;47.700;7.924;2022-11-15T07:21:25;9.80;99.90
42615;DHT22;28754;47.700;7.924;2022-11-15T07:24:31;9.90;99.90
42615;DHT22;28754;47.700;7.924;2022-11-15T07:27:36;9.90;99.90
42615;DHT22;28754;47.700;7.924;2022-11-15T07:30:42;10.00;99.90
42615;DHT22;28754;47.700;7.924;2022-11-15T07:33:47;10.00;99.90
42615;DHT22;28754;47.700;7.924;2022-11-15T07:36:52;10.10;99.90
42615;DHT22;28754;47.700;7.924;2022-11-15T07:39:58;10.10;99.90
42615;DHT22;28754;47.700;7.924;2022-11-15T07:43:06;9.90;99.90
42615;DHT22;28754;47.700;7.924;2022-11-15T07:46:12;10.00;99.90
42615;DHT22;28754;47.700;7.924;2022-11-15T07:49:17;10.10;99.90
42615;DHT22;28754;47.700;7.924;2022-11-15T07:52:22;10.10;99.90
42615;DHT22;28754;47.700;7.924;2022-11-15T07:55:28;10.20;99.90
42615;DHT22;28754;47.700;7.924;2022-11-15T07:58:34;10.20;99.90
42615;DHT22;28754;47.700;7.924;2022-11-15T08:01:40;10.20;99.90
42615;DHT22;28754;47.700;7.924;2022-11-15T08:04:45;10.30;99.90
42615;DHT22;28754;47.700;7.924;2022-11-15T08:07:50;10.20;99.90
42615;DHT22;28754;47.700;7.924;2022-11-15T08:10:57;10.20;99.90
42615;DHT22;28754;47.700;7.924;2022-11-15T08:14:03;10.20;99.90
42615;DHT22;28754;47.700;7.924;2022-11-15T08:17:08;10.20;99.90
42615;DHT22;28754;47.700;7.924;2022-11-15T08:20:14;10.20;99.90
42615;DHT22;28754;47.700;7.924;2022-11-15T08:23:19;10.10;99.90
42615;DHT22;28754;47.700;7.924;2022-11-15T08:26:24;10.20;99.90
42615;DHT22;28754;47.700;7.924;2022-11-15T08:29:33;10.30;99.90
42615;DHT22;28754;47.700;7.924;2022-11-15T08:32:39;10.30;99.90
42615;DHT22;28754;47.700;7.924;2022-11-15T08:35:44;10.40;99.90
42615;DHT22;28754;47.700;7.924;2022-11-15T08:38:50;10.40;99.90
42615;DHT22;28754;47.700;7.924;2022-11-15T08:41:55;10.40;99.90
42615;DHT22;28754;47.700;7.924;2022-11-15T08:45:00;10.50;99.90
42615;DHT22;28754;47.700;7.924;2022-11-15T08:48:05;10.50;99.90
42615;DHT22;28754;47.700;7.924;2022-11-15T08:51:11;10.50;99.90
42615;DHT22;28754;47.700;7.924;2022-11-15T08:54:16;10.60;99.90
42615;DHT22;28754;47.700;7.924;2022-11-15T08:57:22;10.60;99.90
42615;DHT22;28754;47.700;7.924;2022-11-15T09:00:27;10.50;99.90
42615;DHT22;28754;47.700;7.924;2022-11-15T09:03:32;10.40;99.90
42615;DHT22;28754;47.700;7.924;2022-11-15T09:06:38;10.40;99.90
42615;DHT22;28754;47.700;7.924;2022-11-15T09:09:43;10.40;99.90
42615;DHT22;28754;47.700;7.924;2022-11-15T09:12:48;10.40;99.90
42615;DHT22;28754;47.700;7.924;2022-11-15T09:15:57;10.40;99.90
42615;DHT22;28754;47.700;7.924;2022-11-15T09:19:04;10.30;99.90
42615;DHT22;28754;47.700;7.924;2022-11-15T09:22:09;10.40;99.90
42615;DHT22;28754;47.700;7.924;2022-11-15T09:25:15;10.40;99.90
42615;DHT22;28754;47.700;7.924;2022-11-15T09:28:20;10.40;99.90
42615;DHT22;28754;47.700;7.924;2022-11-15T09:31:26;10.50;99.90
42615;DHT22;28754;47.700;7.924;2022-11-15T09:34:31;10.60;99.90
42615;DHT22;28754;47.700;7.924;2022-11-15T09:37:37;10.70;99.90
42615;DHT22;28754;47.700;7.924;2022-11-15T09:40:42;10.80;99.90
42615;DHT22;28754;47.700;7.924;2022-11-15T09:50:55;10.80;99.90
42615;DHT22;28754;47.700;7.924;2022-11-15T09:54:00;10.80;99.90
42615;DHT22;28754;47.700;7.924;2022-11-15T09:56:50;10.70;99.90
42615;DHT22;28754;47.700;7.924;2022-11-15T10:03:14;10.70;99.90
42615;DHT22;28754;47.700;7.924;2022-11-15T10:06:04;10.60;99.90
42615;DHT22;28754;47.700;7.924;2022-11-15T10:09:03;10.50;99.90
42615;DHT22;28754;47.700;7.924;2022-11-15T10:11:59;10.50;99.90
42615;DHT22;28754;47.700;7.924;2022-11-15T10:14:46;10.60;99.90
42615;DHT22;28754;47.700;7.924;2022-11-15T10:17:54;10.60;99.90
42615;DHT22;28754;47.700;7.924;2022-11-15T10:20:57;10.50;99.90
42615;DHT22;28754;47.700;7.924;2022-11-15T10:23:46;10.60;99.90
42615;DHT22;28754;47.700;7.924;2022-11-15T10:26:32;10.50;99.90
42615;DHT22;28754;47.700;7.924;2022-11-15T10:29:20;10.50;99.90
42615;DHT22;28754;47.700;7.924;2022-11-15T10:32:08;10.50;99.90
42615;DHT22;28754;47.700;7.924;2022-11-15T10:34:57;10.40;99.90
42615;DHT22;28754;47.700;7.924;2022-11-15T10:37:43;10.40;99.90
42615;DHT22;28754;47.700;7.924;2022-11-15T10:40:30;10.40;99.90
42615;DHT22;28754;47.700;7.924;2022-11-15T10:43:18;10.40;99.90
42615;DHT22;28754;47.700;7.924;2022-11-15T10:46:20;10.40;99.90
42615;DHT22;28754;47.700;7.924;2022-11-15T10:49:18;10.50;99.90
42615;DHT22;28754;47.700;7.924;2022-11-15T10:52:17;10.70;99.90
42615;DHT22;28754;47.700;7.924;2022-11-15T10:55:23;10.70;99.90
42615;DHT22;28754;47.700;7.924;2022-11-15T10:58:33;10.80;99.90
42615;DHT22;28754;47.700;7.924;2022-11-15T11:04:12;11.00;99.90
42615;DHT22;28754;47.700;7.924;2022-11-15T11:06:59;11.20;99.90
42615;DHT22;28754;47.700;7.924;2022-11-15T11:09:57;11.20;99.90
42615;DHT22;28754;47.700;7.924;2022-11-15T11:12:49;11.10;99.90
42615;DHT22;28754;47.700;7.924;2022-11-15T11:15:35;11.30;99.90
42615;DHT22;28754;47.700;7.924;2022-11-15T11:18:32;11.30;99.90
42615;DHT22;28754;47.700;7.924;2022-11-15T11:21:37;11.30;99.90
42615;DHT22;28754;47.700;7.924;2022-11-15T11:30:57;11.50;99.90
42615;DHT22;28754;47.700;7.924;2022-11-15T11:41:04;11.70;99.90
42615;DHT22;28754;47.700;7.924;2022-11-15T11:47:32;11.90;99.90
42615;DHT22;28754;47.700;7.924;2022-11-15T11:50:27;11.80;99.90
42615;DHT22;28754;47.700;7.924;2022-11-15T11:53:52;11.70;99.90
42615;DHT22;28754;47.700;7.924;2022-11-15T11:56:44;11.60;99.90
42615;DHT22;28754;47.700;7.924;2022-11-15T11:59:44;11.60;99.90
42615;DHT22;28754;47.700;7.924;2022-11-15T12:02:41;11.70;99.90
42615;DHT22;28754;47.700;7.924;2022-11-15T12:05:39;11.90;99.90
42615;DHT22;28754;47.700;7.924;2022-11-15T12:08:48;12.00;99.90
42615;DHT22;28754;47.700;7.924;2022-11-15T12:11:54;12.00;99.90
42615;DHT22;28754;47.700;7.924;2022-11-15T12:17:56;12.00;99.90
42615;DHT22;28754;47.700;7.924;2022-11-15T12:21:01;12.00;99.90
42615;DHT22;28754;47.700;7.924;2022-11-15T12:23:58;12.10;99.90
42615;DHT22;28754;47.700;7.924;2022-11-15T12:30:21;12.10;99.90
42615;DHT22;28754;47.700;7.924;2022-11-15T12:33:31;12.20;99.90
42615;DHT22;28754;47.700;7.924;2022-11-15T12:39:09;11.90;99.90
42615;DHT22;28754;47.700;7.924;2022-11-15T12:45:46;11.70;99.90
42615;DHT22;28754;47.700;7.924;2022-11-15T12:57:30;11.40;99.90
42615;DHT22;28754;47.700;7.924;2022-11-15T13:03:18;11.50;99.90
42615;DHT22;28754;47.700;7.924;2022-11-15T13:06:08;11.40;99.90
42615;DHT22;28754;47.700;7.924;2022-11-15T13:18:27;11.30;99.90
42615;DHT22;28754;47.700;7.924;2022-11-15T13:21:19;11.30;99.90
42615;DHT22;28754;47.700;7.924;2022-11-15T13:24:28;11.30;99.90
42615;DHT22;28754;47.700;7.924;2022-11-15T13:27:15;11.20;99.90
42615;DHT22;28754;47.700;7.924;2022-11-15T13:30:12;11.10;99.90
42615;DHT22;28754;47.700;7.924;2022-11-15T13:33:18;11.10;99.90
42615;DHT22;28754;47.700;7.924;2022-11-15T13:36:20;11.00;99.90
42615;DHT22;28754;47.700;7.924;2022-11-15T13:42:19;11.00;99.90
42615;DHT22;28754;47.700;7.924;2022-11-15T13:45:14;10.80;99.90
42615;DHT22;28754;47.700;7.924;2022-11-15T13:48:03;10.70;99.90
42615;DHT22;28754;47.700;7.924;2022-11-15T13:50:49;10.60;99.90
42615;DHT22;28754;47.700;7.924;2022-11-15T13:53:39;10.40;99.90
42615;DHT22;28754;47.700;7.924;2022-11-15T13:56:29;10.30;99.90
42615;DHT22;28754;47.700;7.924;2022-11-15T13:59:29;10.30;99.90
42615;DHT22;28754;47.700;7.924;2022-11-15T14:02:26;10.30;99.90
42615;DHT22;28754;47.700;7.924;2022-11-15T14:05:23;10.20;99.90
42615;DHT22;28754;47.700;7.924;2022-11-15T14:11:16;10.20;99.90
42615;DHT22;28754;47.700;7.924;2022-11-15T14:16:58;10.10;99.90
42615;DHT22;28754;47.700;7.924;2022-11-15T14:19:46;10.00;99.90
42615;DHT22;28754;47.700;7.924;2022-11-15T14:22:33;9.90;99.90
42615;DHT22;28754;47.700;7.924;2022-11-15T14:25:22;10.00;99.90
42615;DHT22;28754;47.700;7.924;2022-11-15T14:28:30;10.00;99.90
42615;DHT22;28754;47.700;7.924;2022-11-15T14:31:19;10.00;99.90
42615;DHT22;28754;47.700;7.924;2022-11-15T14:34:08;9.90;99.90
42615;DHT22;28754;47.700;7.924;2022-11-15T14:36:55;9.90;99.90
42615;DHT22;28754;47.700;7.924;2022-11-15T14:39:42;9.90;99.90
42615;DHT22;28754;47.700;7.924;2022-11-15T14:42:28;9.90;99.90
42615;DHT22;28754;47.700;7.924;2022-11-15T14:45:20;9.90;99.90
42615;DHT22;28754;47.700;7.924;2022-11-15T14:48:08;9.90;99.90
42615;DHT22;28754;47.700;7.924;2022-11-15T14:50:55;9.90;99.90
42615;DHT22;28754;47.700;7.924;2022-11-15T14:53:43;9.90;99.90
42615;DHT22;28754;47.700;7.924;2022-11-15T14:56:31;9.90;99.90
42615;DHT22;28754;47.700;7.924;2022-11-15T14:59:18;10.00;99.90
42615;DHT22;28754;47.700;7.924;2022-11-15T15:02:13;10.00;99.90
42615;DHT22;28754;47.700;7.924;2022-11-15T15:05:47;9.90;99.90
42615;DHT22;28754;47.700;7.924;2022-11-15T15:08:32;9.70;99.90
42615;DHT22;28754;47.700;7.924;2022-11-15T15:11:28;9.60;99.90
42615;DHT22;28754;47.700;7.924;2022-11-15T15:14:16;9.60;99.90
42615;DHT22;28754;47.700;7.924;2022-11-15T15:17:03;9.50;99.90
42615;DHT22;28754;47.700;7.924;2022-11-15T15:19:51;9.50;99.90
42615;DHT22;28754;47.700;7.924;2022-11-15T15:22:37;9.50;99.90
42615;DHT22;28754;47.700;7.924;2022-11-15T15:25:33;9.60;99.90
42615;DHT22;28754;47.700;7.924;2022-11-15T15:28:21;9.50;99.90
42615;DHT22;28754;47.700;7.924;2022-11-15T15:31:09;9.50;99.90
42615;DHT22;28754;47.700;7.924;2022-11-15T15:33:56;9.50;99.90
42615;DHT22;28754;47.700;7.924;2022-11-15T15:36:42;9.50;99.90
42615;DHT22;28754;47.700;7.924;2022-11-15T15:39:29;9.60;99.90
42615;DHT22;28754;47.700;7.924;2022-11-15T15:42:16;9.60;99.90
42615;DHT22;28754;47.700;7.924;2022-11-15T15:45:02;9.60;99.90
42615;DHT22;28754;47.700;7.924;2022-11-15T15:47:50;9.60;99.90
42615;DHT22;28754;47.700;7.924;2022-11-15T15:50:38;9.60;99.90
42615;DHT22;28754;47.700;7.924;2022-11-15T15:53:24;9.70;99.90
42615;DHT22;28754;47.700;7.924;2022-11-15T15:56:11;9.60;99.90
42615;DHT22;28754;47.700;7.924;2022-11-15T15:58:58;9.70;99.90
42615;DHT22;28754;47.700;7.924;2022-11-15T16:01:44;9.70;99.90
42615;DHT22;28754;47.700;7.924;2022-11-15T16:04:31;9.60;99.90
42615;DHT22;28754;47.700;7.924;2022-11-15T16:07:22;9.60;99.90
42615;DHT22;28754;47.700;7.924;2022-11-15T16:10:22;9.70;99.90
42615;DHT22;28754;47.700;7.924;2022-11-15T16:13:14;9.60;99.90
42615;DHT22;28754;47.700;7.924;2022-11-15T16:16:01;9.60;99.90
42615;DHT22;28754;47.700;7.924;2022-11-15T16:18:47;9.60;99.90
42615;DHT22;28754;47.700;7.924;2022-11-15T16:21:34;9.60;99.90
42615;DHT22;28754;47.700;7.924;2022-11-15T16:24:22;9.60;99.90
42615;DHT22;28754;47.700;7.924;2022-11-15T16:27:17;9.60;99.90
42615;DHT22;28754;47.700;7.924;2022-11-15T16:30:14;9.70;99.90
42615;DHT22;28754;47.700;7.924;2022-11-15T16:33:02;9.70;99.90
42615;DHT22;28754;47.700;7.924;2022-11-15T16:35:48;9.60;99.90
42615;DHT22;28754;47.700;7.924;2022-11-15T16:38:35;9.60;99.90
42615;DHT22;28754;47.700;7.924;2022-11-15T16:41:22;9.60;99.90
42615;DHT22;28754;47.700;7.924;2022-11-15T16:44:08;9.60;99.90
42615;DHT22;28754;47.700;7.924;2022-11-15T16:46:55;9.60;99.90
42615;DHT22;28754;47.700;7.924;2022-11-15T16:49:42;9.60;99.90
42615;DHT22;28754;47.700;7.924;2022-11-15T16:52:30;9.60;99.90
42615;DHT22;28754;47.700;7.924;2022-11-15T16:55:18;9.50;99.90
42615;DHT22;28754;47.700;7.924;2022-11-15T16:58:09;9.50;99.90
42615;DHT22;28754;47.700;7.924;2022-11-15T17:00:56;9.50;99.90
42615;DHT22;28754;47.700;7.924;2022-11-15T17:04:06;9.60;99.90
42615;DHT22;28754;47.700;7.924;2022-11-15T17:07:08;9.50;99.90
42615;DHT22;28754;47.700;7.924;2022-11-15T17:09:55;9.50;99.90
42615;DHT22;28754;47.700;7.924;2022-11-15T17:12:42;9.60;99.90
42615;DHT22;28754;47.700;7.924;2022-11-15T17:15:29;9.60;99.90
42615;DHT22;28754;47.700;7.924;2022-11-15T17:18:16;9.70;99.90
42615;DHT22;28754;47.700;7.924;2022-11-15T17:21:18;9.70;99.90
42615;DHT22;28754;47.700;7.924;2022-11-15T17:24:07;9.70;99.90
42615;DHT22;28754;47.700;7.924;2022-11-15T17:27:01;9.70;99.90
42615;DHT22;28754;47.700;7.924;2022-11-15T17:29:48;9.70;99.90
42615;DHT22;28754;47.700;7.924;2022-11-15T17:32:38;9.70;99.90
42615;DHT22;28754;47.700;7.924;2022-11-15T17:35:35;9.60;99.90
42615;DHT22;28754;47.700;7.924;2022-11-15T17:38:27;9.70;99.90
42615;DHT22;28754;47.700;7.924;2022-11-15T17:41:18;9.60;99.90
42615;DHT22;28754;47.700;7.924;2022-11-15T17:44:06;9.70;99.90
42615;DHT22;28754;47.700;7.924;2022-11-15T17:47:08;9.70;99.90
42615;DHT22;28754;47.700;7.924;2022-11-15T17:50:23;9.70;99.90
42615;DHT22;28754;47.700;7.924;2022-11-15T17:53:13;9.70;99.90
42615;DHT22;28754;47.700;7.924;2022-11-15T17:56:05;9.70;99.90
42615;DHT22;28754;47.700;7.924;2022-11-15T17:58:58;9.70;99.90
42615;DHT22;28754;47.700;7.924;2022-11-15T18:01:45;9.70;99.90
42615;DHT22;28754;47.700;7.924;2022-11-15T18:04:34;9.70;99.90
42615;DHT22;28754;47.700;7.924;2022-11-15T18:07:21;9.80;99.90
42615;DHT22;28754;47.700;7.924;2022-11-15T18:10:08;9.80;99.90
42615;DHT22;28754;47.700;7.924;2022-11-15T18:12:55;9.80;99.90
42615;DHT22;28754;47.700;7.924;2022-11-15T18:15:42;9.70;99.90
42615;DHT22;28754;47.700;7.924;2022-11-15T18:18:39;9.70;99.90
42615;DHT22;28754;47.700;7.924;2022-11-15T18:21:28;9.70;99.90
42615;DHT22;28754;47.700;7.924;2022-11-15T18:24:36;9.80;99.90
42615;DHT22;28754;47.700;7.924;2022-11-15T18:27:23;9.70;99.90
42615;DHT22;28754;47.700;7.924;2022-11-15T18:30:11;9.80;99.90
42615;DHT22;28754;47.700;7.924;2022-11-15T18:33:00;9.80;99.90
42615;DHT22;28754;47.700;7.924;2022-11-15T18:35:47;9.80;99.90
42615;DHT22;28754;47.700;7.924;2022-11-15T18:38:34;9.60;99.90
42615;DHT22;28754;47.700;7.924;2022-11-15T18:41:22;9.60;99.90
42615;DHT22;28754;47.700;7.924;2022-11-15T18:44:16;9.50;99.90
42615;DHT22;28754;47.700;7.924;2022-11-15T18:47:03;9.50;99.90
42615;DHT22;28754;47.700;7.924;2022-11-15T18:49:53;9.40;99.90
42615;DHT22;28754;47.700;7.924;2022-11-15T18:52:40;9.50;99.90
42615;DHT22;28754;47.700;7.924;2022-11-15T18:55:27;9.60;99.90
42615;DHT22;28754;47.700;7.924;2022-11-15T18:58:13;9.60;99.90
42615;DHT22;28754;47.700;7.924;2022-11-15T19:01:21;9.60;99.90
42615;DHT22;28754;47.700;7.924;2022-11-15T19:04:14;9.60;99.90
42615;DHT22;28754;47.700;7.924;2022-11-15T19:07:03;9.70;99.90
42615;DHT22;28754;47.700;7.924;2022-11-15T19:09:55;9.70;99.90
42615;DHT22;28754;47.700;7.924;2022-11-15T19:12:42;9.80;99.90
42615;DHT22;28754;47.700;7.924;2022-11-15T19:15:31;9.70;99.90
42615;DHT22;28754;47.700;7.924;2022-11-15T19:18:18;9.80;99.90
42615;DHT22;28754;47.700;7.924;2022-11-15T19:21:09;9.80;99.90
42615;DHT22;28754;47.700;7.924;2022-11-15T19:23:59;9.80;99.90
42615;DHT22;28754;47.700;7.924;2022-11-15T19:26:50;9.80;99.90
42615;DHT22;28754;47.700;7.924;2022-11-15T19:29:37;9.80;99.90
42615;DHT22;28754;47.700;7.924;2022-11-15T19:32:27;9.80;99.90
42615;DHT22;28754;47.700;7.924;2022-11-15T19:35:16;9.90;99.90
42615;DHT22;28754;47.700;7.924;2022-11-15T19:38:08;9.80;99.90
42615;DHT22;28754;47.700;7.924;2022-11-15T19:41:33;9.80;99.90
42615;DHT22;28754;47.700;7.924;2022-11-15T19:44:45;9.90;99.90
42615;DHT22;28754;47.700;7.924;2022-11-15T19:48:12;9.90;99.90
42615;DHT22;28754;47.700;7.924;2022-11-15T19:51:11;9.80;99.90
42615;DHT22;28754;47.700;7.924;2022-11-15T19:54:17;9.80;99.90
42615;DHT22;28754;47.700;7.924;2022-11-15T19:57:07;9.80;99.90
42615;DHT22;28754;47.700;7.924;2022-11-15T20:09:43;9.60;99.90
42615;DHT22;28754;47.700;7.924;2022-11-15T20:13:38;9.40;99.90
42615;DHT22;28754;47.700;7.924;2022-11-15T20:21:25;9.10;99.90
42615;DHT22;28754;47.700;7.924;2022-11-15T20:43:04;9.40;99.90
42615;DHT22;28754;47.700;7.924;2022-11-15T20:46:22;9.50;99.90
42615;DHT22;28754;47.700;7.924;2022-11-15T20:49:32;9.50;99.90
42615;DHT22;28754;47.700;7.924;2022-11-15T20:52:19;9.40;99.90
42615;DHT22;28754;47.700;7.924;2022-11-15T20:55:06;9.40;99.90
42615;DHT22;28754;47.700;7.924;2022-11-15T20:58:03;9.40;99.90
42615;DHT22;28754;47.700;7.924;2022-11-15T21:00:58;9.40;99.90
42615;DHT22;28754;47.700;7.924;2022-11-15T21:03:47;9.40;99.90
42615;DHT22;28754;47.700;7.924;2022-11-15T21:06:34;9.40;99.90
42615;DHT22;28754;47.700;7.924;2022-11-15T21:09:21;9.50;99.90
42615;DHT22;28754;47.700;7.924;2022-11-15T21:12:30;9.20;99.90
42615;DHT22;28754;47.700;7.924;2022-11-15T21:15:51;9.20;99.90
42615;DHT22;28754;47.700;7.924;2022-11-15T21:19:11;9.30;99.90
42615;DHT22;28754;47.700;7.924;2022-11-15T21:22:22;9.40;99.90
42615;DHT22;28754;47.700;7.924;2022-11-15T21:25:15;9.30;99.90
42615;DHT22;28754;47.700;7.924;2022-11-15T21:28:02;9.30;99.90